Time;durP1;ratioP1;P1;durP2;ratioP2;P2;SDS_P1;SDS_P2;PMS_P1;PMS_P2;Temp;Humidity;BMP_temperature;BMP_pressure;BME280_temperature;BME280_humidity;BME280_pressure;Samples;Min_cycle;Max_cycle;Signal;HPM_P1;HPM_P2
2022/11/04 00:02:01;;;;;;;34.60;22.82;;;;;;;8.82;100.00;100187.13;1654935;84;21135;-68
2022/11/04 00:04:28;;;;;;;34.50;21.60;;;;;;;8.85;100.00;100180.92;1652066;84;21677;-67
2022/11/04 00:06:55;;;;;;;28.42;19.50;;;;;;;8.85;100.00;100182.69;1656408;84;21126;-68
2022/11/04 00:09:26;;;;;;;29.80;19.32;;;;;;;8.77;100.00;100185.55;1656426;84;21287;-69
2022/11/04 00:14:38;;;;;;;31.97;20.77;;;;;;;8.88;100.00;100186.11;1660716;85;21063;-69
2022/11/04 00:17:20;;;;;;;30.50;19.50;;;;;;;8.88;100.00;100186.11;1659701;86;21107;-67
2022/11/04 00:33:51;;;;;;;27.65;19.12;;;;;;;8.85;100.00;100170.42;1655795;84;21142;-68
2022/11/04 00:36:18;;;;;;;29.67;18.90;;;;;;;8.81;100.00;100167.47;1657883;84;22290;-68
2022/11/04 00:38:45;;;;;;;32.00;21.50;;;;;;;8.78;100.00;100166.25;1656099;86;21130;-67
2022/11/04 00:41:28;;;;;;;31.17;21.10;;;;;;;8.85;100.00;100154.66;1656161;84;21064;-69
2022/11/04 00:44:00;;;;;;;31.05;20.55;;;;;;;8.96;100.00;100161.77;1659650;84;21111;-69
2022/11/04 00:46:30;;;;;;;29.18;20.17;;;;;;;8.83;100.00;100159.09;1656294;85;21583;-68
2022/11/04 00:48:57;;;;;;;33.02;21.30;;;;;;;8.77;100.00;100160.61;1656352;84;21241;-69
2022/11/04 00:51:23;;;;;;;30.50;20.12;;;;;;;8.86;100.00;100162.96;1652545;85;21074;-68
2022/11/04 00:53:50;;;;;;;30.85;21.17;;;;;;;8.88;100.00;100162.47;1649815;84;22222;-68
2022/11/04 00:56:17;;;;;;;29.42;19.62;;;;;;;8.84;100.00;100155.58;1656178;86;21100;-68
2022/11/04 00:58:44;;;;;;;30.57;21.10;;;;;;;8.95;100.00;100161.80;1651185;86;21078;-68
2022/11/04 01:01:18;;;;;;;25.32;17.60;;;;;;;8.97;100.00;100155.63;1647561;84;21284;-66
2022/11/04 01:03:46;;;;;;;31.37;20.25;;;;;;;8.98;100.00;100154.71;1653636;84;21132;-69
2022/11/04 01:06:13;;;;;;;32.45;22.05;;;;;;;9.11;100.00;100156.52;1659243;86;21105;-68
2022/11/04 01:08:39;;;;;;;31.02;19.92;;;;;;;9.07;100.00;100154.89;1653788;86;21065;-68
2022/11/04 01:11:08;;;;;;;30.48;18.60;;;;;;;9.18;100.00;100157.20;1654970;85;21129;-68
2022/11/04 01:13:35;;;;;;;27.95;17.48;;;;;;;9.17;100.00;100152.84;1649579;85;21293;-68
2022/11/04 01:16:04;;;;;;;30.57;18.80;;;;;;;9.09;100.00;100154.39;1649567;86;21175;-67
2022/11/04 01:18:31;;;;;;;31.05;19.05;;;;;;;9.16;100.00;100149.81;1656349;86;21498;-68
2022/11/04 01:21:06;;;;;;;26.77;19.32;;;;;;;9.06;100.00;100143.11;1659852;86;21144;-68
2022/11/04 01:23:33;;;;;;;25.50;18.10;;;;;;;9.16;100.00;100145.87;1657496;86;21034;-69
2022/11/04 01:26:00;;;;;;;35.00;21.90;;;;;;;9.07;100.00;100142.22;1653411;86;21921;-67
2022/11/04 01:28:27;;;;;;;36.40;22.32;;;;;;;9.02;100.00;100144.52;1655646;84;21077;-67
2022/11/04 01:30:54;;;;;;;32.73;21.12;;;;;;;9.05;100.00;100142.71;1655642;86;21080;-67
2022/11/04 01:33:20;;;;;;;28.05;19.10;;;;;;;9.03;100.00;100140.97;1650745;86;21058;-68
2022/11/04 01:35:47;;;;;;;24.87;17.05;;;;;;;9.03;100.00;100140.97;1652789;86;21066;-67
2022/11/04 01:38:15;;;;;;;24.85;16.23;;;;;;;9.08;100.00;100139.98;1656977;86;21162;-69
2022/11/04 01:40:43;;;;;;;31.23;19.80;;;;;;;9.11;100.00;100138.56;1659063;85;21132;-67
2022/11/04 01:43:17;;;;;;;25.20;16.48;;;;;;;9.12;100.00;100140.30;1657942;86;21196;-68
2022/11/04 01:45:51;;;;;;;24.15;16.42;;;;;;;9.11;100.00;100146.45;1648767;85;21130;-69
2022/11/04 01:48:28;;;;;;;26.90;17.15;;;;;;;9.07;100.00;100139.13;1642278;86;21046;-70
2022/11/04 01:50:55;;;;;;;37.00;23.30;;;;;;;9.10;100.00;100140.34;1650597;86;21557;-67
2022/11/04 01:53:29;;;;;;;34.70;22.85;;;;;;;9.17;100.00;100137.07;1625269;86;21080;-68
2022/11/04 01:55:59;;;;;;;34.78;21.87;;;;;;;9.21;100.00;100136.92;1625053;86;21612;-67
2022/11/04 01:58:28;;;;;;;35.70;23.92;;;;;;;9.18;100.00;100138.34;1633422;86;21050;-68
2022/11/04 02:00:55;;;;;;;31.75;20.57;;;;;;;9.20;100.00;100138.28;1647041;86;21604;-68
2022/11/04 02:03:27;;;;;;;36.35;18.73;;;;;;;9.33;100.00;100143.56;1658015;86;21171;-68
2022/11/04 02:05:53;;;;;;;33.18;18.55;;;;;;;9.36;100.00;100146.11;1652483;86;21117;-67
2022/11/04 02:08:21;;;;;;;32.05;19.55;;;;;;;9.25;100.00;100139.02;1653054;86;21093;-67
2022/11/04 02:10:59;;;;;;;29.25;18.25;;;;;;;9.22;100.00;100141.30;1656698;85;21178;-67
2022/11/04 02:13:26;;;;;;;26.75;16.02;;;;;;;9.28;100.00;100142.85;1657431;85;21081;-68
2022/11/04 02:16:16;;;;;;;26.70;15.70;;;;;;;9.40;100.00;100138.52;1653722;85;21097;-67
2022/11/04 02:19:11;;;;;;;29.25;16.80;;;;;;;9.40;100.00;100141.14;1657760;86;21055;-68
2022/11/04 02:22:09;;;;;;;38.40;18.12;;;;;;;9.31;100.00;100137.48;1660147;86;22183;-69
2022/11/04 02:24:59;;;;;;;28.98;16.75;;;;;;;9.49;100.00;100140.45;1654078;85;21113;-68
2022/11/04 02:27:53;;;;;;;28.57;16.65;;;;;;;9.55;100.00;100137.64;1654673;86;21026;-67
2022/11/04 02:30:20;;;;;;;31.00;15.43;;;;;;;9.59;100.00;100135.28;1654459;85;21193;-69
2022/11/04 02:33:14;;;;;;;23.60;14.55;;;;;;;9.62;100.00;100133.89;1654729;85;22071;-67
2022/11/04 02:36:00;;;;;;;26.55;14.43;;;;;;;9.66;100.00;100130.22;1658349;86;21121;-68
2022/11/04 02:38:49;;;;;;;27.30;15.15;;;;;;;9.63;100.00;100132.97;1659231;86;21541;-68
2022/11/04 02:41:42;;;;;;;22.52;13.08;;;;;;;9.63;100.00;100130.34;1653872;85;21109;-69
2022/11/04 02:44:19;;;;;;;26.00;14.23;;;;;;;9.61;100.00;100126.89;1658449;86;21148;-67
2022/11/04 02:46:58;;;;;;;24.32;13.80;;;;;;;9.53;100.00;100127.16;1650945;86;21223;-67
2022/11/04 02:49:57;;;;;;;31.00;15.05;;;;;;;9.74;100.00;100132.16;1636716;85;21109;-67
2022/11/04 02:52:35;;;;;;;28.12;15.53;;;;;;;9.79;100.00;100126.28;1639078;86;21086;-68
2022/11/04 02:55:19;;;;;;;23.07;14.25;;;;;;;9.76;100.00;100117.19;1644679;86;21073;-67
2022/11/04 02:57:45;;;;;;;20.08;11.57;;;;;;;9.70;100.00;100125.27;1645055;86;22138;-68
2022/11/04 03:00:14;;;;;;;24.32;13.78;;;;;;;9.55;100.00;100119.23;1638716;86;21146;-67
2022/11/04 03:02:47;;;;;;;23.75;12.25;;;;;;;9.56;100.00;100115.67;1655229;85;21133;-68
2022/11/04 03:05:17;;;;;;;21.52;12.58;;;;;;;9.61;100.00;100119.86;1657723;85;21093;-67
2022/11/04 03:07:45;;;;;;;26.30;13.72;;;;;;;9.58;100.00;100111.23;1654144;86;21133;-68
2022/11/04 03:10:29;;;;;;;25.12;13.48;;;;;;;9.63;100.00;100112.78;1657191;86;21260;-68
2022/11/04 03:13:06;;;;;;;27.52;13.60;;;;;;;9.74;100.00;100115.06;1649048;85;21086;-67
2022/11/04 03:15:34;;;;;;;28.30;12.93;;;;;;;9.62;100.00;100118.12;1653160;86;21137;-67
2022/11/04 03:18:15;;;;;;;23.75;13.58;;;;;;;9.60;100.00;100122.56;1651577;86;21125;-68
2022/11/04 03:20:44;;;;;;;25.37;12.93;;;;;;;9.63;100.00;100119.81;1649699;86;21697;-67
2022/11/04 03:23:12;;;;;;;21.95;11.53;;;;;;;9.71;100.00;100129.64;1655826;86;21276;-68
2022/11/04 03:25:43;;;;;;;20.75;12.35;;;;;;;9.62;100.00;100133.89;1653866;86;21144;-67
2022/11/04 03:28:27;;;;;;;24.18;12.07;;;;;;;9.75;100.00;100131.23;1651318;86;21534;-69
2022/11/04 03:30:56;;;;;;;20.65;12.20;;;;;;;9.72;100.00;100126.55;1659532;84;21065;-67
2022/11/04 03:33:41;;;;;;;24.95;13.08;;;;;;;9.73;100.00;100119.94;1656930;86;21062;-66
2022/11/04 03:36:08;;;;;;;22.58;12.37;;;;;;;9.60;100.00;100121.25;1626140;84;21306;-67
2022/11/04 03:38:36;;;;;;;26.77;13.83;;;;;;;9.61;100.00;100122.95;1653514;86;21609;-68
2022/11/04 03:41:11;;;;;;;29.10;14.05;;;;;;;9.55;100.00;100121.86;1651267;86;21097;-67
2022/11/04 03:43:38;;;;;;;26.40;12.90;;;;;;;9.52;100.00;100127.20;1651710;86;21129;-67
2022/11/04 03:46:05;;;;;;;22.45;13.48;;;;;;;9.53;100.00;100129.78;1620434;86;21085;-68
2022/11/04 03:48:32;;;;;;;24.15;12.33;;;;;;;9.67;100.00;100128.02;1640950;86;21827;-68
2022/11/04 03:50:59;;;;;;;22.27;12.45;;;;;;;9.68;100.00;100129.72;1636103;86;21572;-68
2022/11/04 03:53:26;;;;;;;24.07;12.45;;;;;;;9.73;100.00;100134.40;1640184;86;21543;-69
2022/11/04 03:56:36;;;;;;;19.50;11.80;;;;;;;9.57;100.00;100134.47;1632952;86;21085;-69
2022/11/04 03:59:32;;;;;;;26.42;11.38;;;;;;;9.72;100.00;100135.29;1630958;86;21112;-68
2022/11/04 04:02:03;;;;;;;21.62;11.95;;;;;;;9.53;100.00;100134.19;1638938;86;21342;-67
2022/11/04 04:04:36;;;;;;;23.47;11.97;;;;;;;9.49;100.00;100134.73;1642803;86;21554;-69
2022/11/04 04:07:17;;;;;;;19.95;13.65;;;;;;;9.59;100.00;100127.39;1645290;85;21097;-68
2022/11/04 04:09:50;;;;;;;25.40;12.47;;;;;;;9.51;100.00;100130.75;1634672;86;21391;-69
2022/11/04 04:12:36;;;;;;;22.70;11.57;;;;;;;9.53;100.00;100123.67;1629400;86;21117;-66
2022/11/04 04:15:22;;;;;;;21.62;11.30;;;;;;;9.61;100.00;100125.12;1630070;86;21229;-69
2022/11/04 04:17:58;;;;;;;23.70;12.23;;;;;;;9.53;100.00;100132.41;1640275;86;21078;-68
2022/11/04 04:20:27;;;;;;;25.00;13.45;;;;;;;9.50;100.00;100126.38;1637258;86;21129;-68
2022/11/04 04:22:58;;;;;;;26.65;13.88;;;;;;;9.53;100.00;100126.30;1630874;86;21637;-69
2022/11/04 04:28:13;;;;;;;22.00;13.65;;;;;;;9.47;100.00;100119.46;1636063;86;21308;-68
2022/11/04 04:30:40;;;;;;;26.55;14.63;;;;;;;9.52;100.00;100123.25;1641088;86;21112;-69
2022/11/04 04:33:14;;;;;;;29.30;16.20;;;;;;;9.54;100.00;100126.23;1641904;85;21054;-68
2022/11/04 04:35:52;;;;;;;26.33;15.50;;;;;;;9.41;100.00;100125.80;1637060;86;21128;-67
2022/11/04 04:47:18;;;;;;;28.35;15.93;;;;;;;9.48;100.00;100133.45;1651543;84;21074;-68
2022/11/04 04:49:56;;;;;;;28.00;17.30;;;;;;;9.49;100.00;100141.77;1655804;84;21389;-68
2022/11/04 04:52:26;;;;;;;25.82;16.52;;;;;;;9.62;100.00;100145.72;1652008;84;21095;-69
2022/11/04 07:26:04;;;;;;;48.68;23.38;;;;;;;7.88;100.00;100190.52;1805224;77;28028;-95
2022/11/04 07:28:39;;;;;;;55.80;25.15;;;;;;;8.54;100.00;100194.08;1694274;78;85390;-66
2022/11/04 07:31:07;;;;;;;59.10;29.00;;;;;;;8.87;100.00;100190.94;1685619;83;21228;-67
2022/11/04 07:33:34;;;;;;;46.53;23.80;;;;;;;8.92;100.00;100189.03;1687683;84;21013;-67
2022/11/04 07:36:05;;;;;;;57.05;27.58;;;;;;;8.98;100.00;100190.63;1691733;84;21037;-68
2022/11/04 07:38:32;;;;;;;47.75;24.27;;;;;;;9.03;100.00;100190.89;1696972;83;21039;-67
2022/11/04 07:41:01;;;;;;;47.53;24.18;;;;;;;9.01;100.00;100188.75;1686557;82;20962;-66
2022/11/04 07:43:29;;;;;;;46.90;23.15;;;;;;;9.17;100.00;100186.99;1696780;83;21727;-68
2022/11/04 07:46:03;;;;;;;44.08;22.07;;;;;;;9.21;100.00;100188.63;1693864;83;21005;-67
2022/11/04 07:48:29;;;;;;;34.27;17.75;;;;;;;9.25;100.00;100190.27;1652960;84;21149;-67
2022/11/04 07:50:58;;;;;;;47.95;23.18;;;;;;;9.28;100.00;100189.30;1647463;86;21109;-67
2022/11/04 07:53:28;;;;;;;42.78;20.80;;;;;;;9.35;100.00;100187.74;1647864;86;21015;-66
2022/11/04 07:55:55;;;;;;;38.15;19.30;;;;;;;9.51;100.00;100193.84;1624144;86;22076;-67
2022/11/04 07:58:21;;;;;;;47.13;22.00;;;;;;;9.43;100.00;100192.32;1686324;84;21096;-66
2022/11/04 08:00:48;;;;;;;50.08;22.05;;;;;;;9.37;100.00;100190.33;1651975;84;21092;-67
2022/11/04 08:03:15;;;;;;;46.98;20.97;;;;;;;9.35;100.00;100188.20;1687332;82;21093;-65
2022/11/04 08:05:41;;;;;;;41.80;21.68;;;;;;;9.26;100.00;100186.71;1652810;86;21089;-66
2022/11/04 08:08:09;;;;;;;41.65;20.45;;;;;;;9.26;100.00;100190.66;1631932;86;21872;-67
2022/11/04 08:10:36;;;;;;;43.80;22.07;;;;;;;9.36;100.00;100190.80;1631205;86;21139;-66
2022/11/04 08:13:02;;;;;;;39.85;20.72;;;;;;;9.34;100.00;100192.61;1632290;86;21620;-67
2022/11/04 08:15:29;;;;;;;33.90;20.25;;;;;;;9.40;100.00;100189.77;1632197;86;21068;-65
2022/11/04 08:17:57;;;;;;;36.83;19.23;;;;;;;9.41;100.00;100191.50;1675837;84;21120;-67
2022/11/04 08:20:23;;;;;;;40.78;19.42;;;;;;;9.40;100.00;100189.77;1692287;84;21230;-66
2022/11/04 08:22:51;;;;;;;38.75;18.90;;;;;;;9.41;100.00;100186.25;1700427;84;21611;-66
2022/11/04 08:25:18;;;;;;;34.38;18.87;;;;;;;9.45;100.00;100195.77;1658471;84;21152;-67
2022/11/04 08:27:47;;;;;;;33.60;19.75;;;;;;;9.48;100.00;100189.97;1640823;86;21033;-66
2022/11/04 08:30:14;;;;;;;29.48;18.77;;;;;;;9.50;100.00;100196.05;1608314;87;21143;-68
2022/11/04 08:32:40;;;;;;;29.20;16.32;;;;;;;9.52;100.00;100192.92;1659987;85;21137;-67
2022/11/04 08:35:08;;;;;;;35.23;18.32;;;;;;;9.69;100.00;100198.52;1666934;85;21075;-68
2022/11/04 08:37:35;;;;;;;31.95;17.80;;;;;;;9.76;100.00;100196.55;1666523;85;21099;-68
2022/11/04 08:40:02;;;;;;;36.13;18.12;;;;;;;9.82;100.00;100201.16;1658893;85;21078;-68
2022/11/04 08:42:29;;;;;;;29.42;16.90;;;;;;;9.88;100.00;100195.67;1656709;85;21081;-68
2022/11/04 08:44:56;;;;;;;36.28;19.12;;;;;;;9.94;100.00;100191.11;1643598;85;21230;-68
2022/11/04 08:47:27;;;;;;;36.03;17.92;;;;;;;9.95;100.00;100194.17;1625087;87;21061;-67
2022/11/04 08:49:51;;;;;;;34.08;18.40;;;;;;;10.00;100.00;100194.86;1623742;88;21104;-68
2022/11/04 08:52:19;;;;;;;27.27;16.35;;;;;;;10.06;100.00;100190.72;1621702;88;21033;-67
2022/11/04 08:54:45;;;;;;;29.90;16.97;;;;;;;10.07;100.00;100196.37;1617993;88;22310;-68
2022/11/04 08:57:12;;;;;;;31.05;17.37;;;;;;;10.17;100.00;100197.80;1583243;89;21808;-67
2022/11/04 08:59:39;;;;;;;30.32;17.02;;;;;;;10.17;100.00;100200.42;1573465;89;21073;-66
2022/11/04 09:02:18;;;;;;;32.75;17.32;;;;;;;9.98;100.00;100201.95;1579552;89;21601;-66
2022/11/04 09:04:42;;;;;;;33.78;16.85;;;;;;;10.02;100.00;100194.36;1589423;88;21097;-67
2022/11/04 09:07:09;;;;;;;31.02;16.10;;;;;;;10.05;100.00;100199.51;1594973;88;21550;-67
2022/11/04 09:09:38;;;;;;;26.97;15.88;;;;;;;10.07;100.00;100201.17;1594710;88;21553;-67
2022/11/04 09:12:09;;;;;;;27.77;15.32;;;;;;;10.14;100.00;100197.88;1633760;87;21033;-68
2022/11/04 09:14:36;;;;;;;27.77;15.88;;;;;;;10.04;100.00;100191.22;1631942;87;21584;-68
2022/11/04 09:17:03;;;;;;;24.32;14.75;;;;;;;9.99;100.00;100191.38;1629018;87;21030;-67
2022/11/04 09:19:31;;;;;;;26.97;14.70;;;;;;;10.00;100.00;100189.60;1623358;87;21773;-66
2022/11/04 09:21:57;;;;;;;25.60;12.88;;;;;;;10.07;100.00;100185.84;1638424;87;21123;-66
2022/11/04 09:24:24;;;;;;;26.37;13.32;;;;;;;10.04;100.00;100178.07;1630365;87;21503;-68
2022/11/04 09:26:51;;;;;;;18.80;12.05;;;;;;;10.08;100.00;100177.06;1630512;86;21559;-67
2022/11/04 09:29:17;;;;;;;18.62;11.95;;;;;;;10.14;100.00;100187.35;1634395;87;21012;-66
2022/11/04 09:31:46;;;;;;;22.80;13.30;;;;;;;10.20;100.00;100180.58;1634433;87;21036;-67
2022/11/04 09:34:13;;;;;;;21.85;12.00;;;;;;;10.26;100.00;100188.70;1636867;87;21165;-67
2022/11/04 09:36:40;;;;;;;20.55;12.82;;;;;;;10.26;100.00;100180.80;1636274;87;21589;-67
2022/11/04 09:39:06;;;;;;;20.77;12.07;;;;;;;10.33;100.00;100185.43;1634371;86;21084;-67
2022/11/04 09:41:59;;;;;;;22.32;12.20;;;;;;;10.42;100.00;100185.11;1634468;87;21174;-68
2022/11/04 09:44:50;;;;;;;17.90;10.55;;;;;;;10.53;100.00;100181.64;1649086;85;21777;-67
2022/11/04 09:47:17;;;;;;;18.62;10.93;;;;;;;10.57;100.00;100185.03;1660907;85;21235;-67
2022/11/04 09:49:45;;;;;;;17.60;10.00;;;;;;;10.59;100.00;100177.48;1670802;85;21631;-66
2022/11/04 09:52:19;;;;;;;13.70;9.75;;;;;;;10.66;100.00;100182.92;1662609;85;21108;-66
2022/11/04 09:55:34;;;;;;;17.75;10.90;;;;;;;10.66;100.00;100178.97;1664880;84;21085;-66
2022/11/04 09:58:05;;;;;;;17.80;10.55;;;;;;;10.60;100.00;100179.18;1666082;85;21116;-67
2022/11/04 10:00:30;;;;;;;17.05;10.90;;;;;;;10.62;100.00;100170.77;1662483;85;21180;-67
2022/11/04 10:03:05;;;;;;;23.40;12.07;;;;;;;10.64;100.00;100179.94;1610160;87;21691;-67
2022/11/04 10:06:02;;;;;;;19.50;11.20;;;;;;;10.63;100.00;100179.55;1658360;86;21049;-68
2022/11/04 10:08:47;;;;;;;19.50;10.50;;;;;;;10.70;100.00;100181.90;1632990;87;21105;-68
2022/11/04 10:11:22;;;;;;;13.58;9.20;;;;;;;10.83;100.00;100173.06;1662113;86;21104;-68
2022/11/04 10:13:57;;;;;;;15.35;10.25;;;;;;;10.88;100.00;100174.21;1660092;86;21323;-66
2022/11/04 10:16:50;;;;;;;17.85;10.25;;;;;;;10.93;100.00;100173.61;1632928;87;21056;-68
2022/11/04 10:19:47;;;;;;;15.40;10.13;;;;;;;10.92;100.00;100173.19;1635582;86;21084;-66
2022/11/04 10:22:34;;;;;;;17.35;10.78;;;;;;;10.95;100.00;100167.82;1666317;85;21596;-66
2022/11/04 10:25:22;;;;;;;19.92;11.03;;;;;;;10.89;100.00;100175.95;1668446;84;21048;-68
2022/11/04 10:27:48;;;;;;;15.10;10.80;;;;;;;10.90;100.00;100181.60;1629240;87;21327;-67
2022/11/04 14:55:08;;;;;;;37.23;21.42;;;;;;;7.89;100.00;100147.66;1800477;78;28041;-67
2022/11/04 14:57:42;;;;;;;36.70;24.30;;;;;;;7.93;100.00;100146.68;1764079;80;21028;-68
2022/11/04 15:00:30;;;;;;;38.60;24.92;;;;;;;8.15;100.00;100145.22;1772502;79;21219;-67
2022/11/04 15:03:25;;;;;;;33.80;23.05;;;;;;;8.27;100.00;100151.89;1781912;79;21092;-67
2022/11/04 15:06:02;;;;;;;37.30;25.77;;;;;;;8.29;100.00;100149.23;1790188;80;21810;-65
2022/11/04 15:08:42;;;;;;;44.23;27.45;;;;;;;8.35;100.00;100155.18;1790362;79;20989;-67
2022/11/04 15:12:49;;;;;;;37.65;21.85;;;;;;;8.35;100.00;100153.88;1790633;80;21076;-66
2022/11/04 15:13:58;;;;;;;34.45;24.27;;;;;;;8.37;100.00;100155.12;1768230;80;21555;-67
2022/11/04 15:16:27;;;;;;;37.23;24.30;;;;;;;8.37;100.00;100157.74;1763832;79;21296;-67
2022/11/04 15:18:56;;;;;;;38.42;25.43;;;;;;;8.38;100.00;100156.86;1790841;79;21053;-67
2022/11/04 15:21:23;;;;;;;37.23;22.77;;;;;;;8.37;100.00;100158.63;1793098;80;21065;-65
2022/11/04 15:23:52;;;;;;;39.48;24.10;;;;;;;8.41;100.00;100158.11;1778435;79;21064;-67
2022/11/04 15:26:26;;;;;;;34.20;22.02;;;;;;;8.33;100.00;100157.44;1775951;79;21137;-66
2022/11/04 15:28:53;;;;;;;33.60;20.62;;;;;;;8.33;100.00;100152.20;1773649;79;21077;-67
2022/11/04 15:31:26;;;;;;;33.45;22.40;;;;;;;8.39;100.00;100155.94;1770381;79;21031;-68
2022/11/04 15:33:56;;;;;;;33.28;22.22;;;;;;;8.33;100.00;100154.82;1765614;80;21049;-68
2022/11/04 15:36:30;;;;;;;29.87;20.77;;;;;;;8.34;100.00;100159.15;1786813;79;21073;-66
2022/11/04 15:39:22;;;;;;;32.23;20.20;;;;;;;8.33;100.00;100164.00;1773714;79;21285;-65
2022/11/04 15:44:40;;;;;;;53.23;33.78;;;;;;;8.25;100.00;100157.62;1776323;79;21323;-67
2022/11/04 15:47:21;;;;;;;47.45;26.45;;;;;;;8.20;100.00;100160.38;1741270;80;21540;-68
2022/11/04 15:49:50;;;;;;;33.80;21.15;;;;;;;8.16;100.00;100157.42;1759535;80;21626;-67
2022/11/04 15:52:24;;;;;;;43.15;28.10;;;;;;;8.22;100.00;100165.59;1756574;79;21116;-67
2022/11/04 15:54:53;;;;;;;37.28;25.27;;;;;;;8.20;100.00;100164.77;1729521;82;21536;-67
2022/11/04 15:57:27;;;;;;;33.42;21.30;;;;;;;8.20;100.00;100169.56;1728745;82;21524;-67
2022/11/04 16:00:05;;;;;;;31.77;20.88;;;;;;;8.18;100.00;100162.17;1727924;82;21173;-67
2022/11/04 16:02:38;;;;;;;28.17;19.40;;;;;;;8.13;100.00;100165.38;1729680;81;21102;-68
2022/11/04 16:05:21;;;;;;;22.85;15.45;;;;;;;8.08;100.00;100159.41;1756513;81;21084;-67
2022/11/04 16:07:50;;;;;;;44.60;25.60;;;;;;;7.97;100.00;100158.81;1739024;81;21013;-67
2022/11/04 16:10:29;;;;;;;47.33;26.57;;;;;;;8.01;100.00;100163.55;1745926;81;21045;-67
2022/11/04 16:12:59;;;;;;;36.35;22.62;;;;;;;7.91;100.00;100158.54;1748313;81;21100;-66
2022/11/04 16:15:44;;;;;;;36.00;22.48;;;;;;;7.88;100.00;100159.05;1739535;81;21091;-67
2022/11/04 16:18:44;;;;;;;33.35;21.23;;;;;;;7.85;100.00;100161.77;1745743;81;21144;-67
2022/11/04 16:21:25;;;;;;;33.65;20.17;;;;;;;7.83;100.00;100163.56;1712766;81;21028;-66
2022/11/04 16:24:03;;;;;;;28.90;19.15;;;;;;;7.79;100.00;100162.77;1754977;81;21038;-67
2022/11/04 16:26:36;;;;;;;41.42;26.95;;;;;;;7.74;100.00;100166.81;1736551;81;21048;-67
2022/11/04 16:29:07;;;;;;;44.58;26.35;;;;;;;7.68;100.00;100166.09;1727883;80;21022;-67
2022/11/04 16:31:36;;;;;;;48.05;26.75;;;;;;;7.58;100.00;100169.40;1731620;81;21226;-66
2022/11/04 16:34:02;;;;;;;40.03;25.02;;;;;;;7.56;100.00;100164.18;1734628;81;21053;-67
2022/11/04 16:36:30;;;;;;;43.70;24.63;;;;;;;7.54;100.00;100170.36;1754756;81;21036;-67
2022/11/04 16:39:07;;;;;;;38.02;24.70;;;;;;;7.51;100.00;100165.20;1752547;81;21179;-66
2022/11/04 16:41:36;;;;;;;34.60;22.50;;;;;;;7.46;100.00;100161.84;1732918;81;21095;-67
2022/11/04 16:44:07;;;;;;;37.05;21.42;;;;;;;7.40;100.00;100161.52;1749082;81;21222;-65
2022/11/04 16:46:34;;;;;;;41.68;25.55;;;;;;;7.35;100.00;100160.31;1743870;81;21041;-66
2022/11/04 16:49:00;;;;;;;36.17;22.70;;;;;;;7.28;100.00;100153.50;1741361;81;21021;-67
2022/11/04 16:51:27;;;;;;;41.20;25.00;;;;;;;7.34;100.00;100158.61;1741415;81;21170;-66
2022/11/04 16:53:54;;;;;;;39.60;26.05;;;;;;;7.23;100.00;100155.37;1746738;81;22089;-66
2022/11/04 16:56:23;;;;;;;120.37;53.52;;;;;;;7.14;100.00;100159.51;1745381;81;21159;-67
2022/11/04 16:58:51;;;;;;;72.32;44.93;;;;;;;7.13;100.00;100159.08;1740567;81;21069;-67
2022/11/04 17:01:18;;;;;;;64.80;38.40;;;;;;;6.98;100.00;100172.53;1744167;81;21069;-67
2022/11/04 17:03:44;;;;;;;72.92;44.53;;;;;;;6.88;100.00;100174.03;1738843;81;21613;-66
2022/11/04 17:06:14;;;;;;;60.80;34.25;;;;;;;6.90;100.00;100177.48;1742408;81;21081;-67
2022/11/04 17:08:41;;;;;;;42.83;26.40;;;;;;;6.86;100.00;100180.20;1741453;81;21091;-66
2022/11/04 17:11:09;;;;;;;49.25;25.80;;;;;;;6.85;100.00;100180.63;1741388;81;21654;-67
2022/11/04 17:13:35;;;;;;;48.17;27.17;;;;;;;6.80;100.00;100176.39;1747027;81;21100;-67
2022/11/04 17:16:04;;;;;;;44.88;26.93;;;;;;;6.68;100.00;100173.13;1745629;81;21378;-67
2022/11/04 17:18:32;;;;;;;49.23;28.85;;;;;;;6.55;100.00;100169.48;1745263;81;21168;-68
2022/11/04 17:21:00;;;;;;;54.53;31.50;;;;;;;6.54;100.00;100167.31;1742103;81;21191;-67
2022/11/04 17:23:27;;;;;;;50.92;30.02;;;;;;;6.49;100.00;100162.17;1748608;81;21041;-67
2022/11/04 17:25:54;;;;;;;53.50;31.25;;;;;;;6.46;100.00;100171.38;1749287;81;21040;-67
2022/11/04 17:28:20;;;;;;;45.88;27.98;;;;;;;6.41;100.00;100162.76;1748329;81;21323;-67
2022/11/04 17:30:47;;;;;;;46.28;25.85;;;;;;;6.45;100.00;100170.97;1748136;81;21034;-67
2022/11/04 17:33:18;;;;;;;37.10;21.27;;;;;;;6.27;100.00;100165.64;1743911;81;21646;-66
2022/11/04 17:35:48;;;;;;;40.20;23.90;;;;;;;6.29;100.00;100172.16;1743929;81;21180;-67
2022/11/04 17:38:15;;;;;;;51.23;27.62;;;;;;;6.28;100.00;100173.03;1747091;81;21608;-67
2022/11/04 17:46:33;;;;;;;48.68;25.30;;;;;;;6.22;100.00;100175.78;1714453;82;22202;-67
2022/11/04 17:49:10;;;;;;;47.13;26.12;;;;;;;6.09;100.00;100174.67;1728280;82;21075;-66
2022/11/04 17:51:38;;;;;;;41.42;25.62;;;;;;;6.02;100.00;100180.91;1723366;82;21546;-67
2022/11/04 17:54:05;;;;;;;41.55;24.95;;;;;;;6.04;100.00;100183.50;1704832;82;21053;-67
2022/11/04 17:56:33;;;;;;;40.80;25.75;;;;;;;5.93;100.00;100182.34;1696470;84;21147;-67
2022/11/04 17:59:00;;;;;;;43.50;25.43;;;;;;;5.91;100.00;100185.42;1697529;84;21098;-67
2022/11/04 18:01:27;;;;;;;47.20;25.35;;;;;;;5.79;100.00;100183.88;1682496;84;21108;-67
2022/11/04 18:03:54;;;;;;;40.90;22.07;;;;;;;5.73;100.00;100184.42;1661323;85;21084;-67
2022/11/04 18:06:21;;;;;;;44.85;23.07;;;;;;;5.56;100.00;100184.70;1651377;86;21025;-66
2022/11/04 18:08:47;;;;;;;33.13;18.73;;;;;;;5.54;100.00;100179.48;1691061;84;21142;-65
2022/11/04 18:12:35;;;;;;;34.48;20.50;;;;;;;5.56;100.00;100179.02;1696634;84;21154;-66
2022/11/04 20:47:52;;;;;;;34.60;19.40;;;;;;;2.20;100.00;100250.42;1882763;75;22398;-94
2022/11/04 20:50:19;;;;;;;43.05;22.55;;;;;;;2.83;100.00;100240.31;1863804;77;20795;-93
2022/11/04 20:52:48;;;;;;;48.65;27.42;;;;;;;3.21;100.00;100254.91;1860506;77;21049;-94
2022/11/04 20:55:22;;;;;;;42.03;22.93;;;;;;;3.33;100.00;100258.73;1825611;77;20986;-96
2022/11/04 20:58:05;;;;;;;42.50;22.15;;;;;;;3.53;100.00;100256.89;1856997;77;21010;-96
2022/11/04 21:00:44;;;;;;;48.73;22.58;;;;;;;3.62;100.00;100252.06;1838904;77;20979;-96
2022/11/04 21:03:16;;;;;;;45.17;23.57;;;;;;;3.62;100.00;100252.06;1852327;76;20974;-96
2022/11/04 21:05:49;;;;;;;38.08;21.37;;;;;;;3.73;100.00;100249.39;1823528;77;21243;-96
2022/11/04 21:08:15;;;;;;;44.58;24.72;;;;;;;3.87;100.00;100252.76;1853947;76;21058;-95
2022/11/04 21:10:55;;;;;;;44.60;24.45;;;;;;;3.98;100.00;100249.63;1855768;77;20979;-95
2022/11/04 21:13:25;;;;;;;84.58;41.80;;;;;;;4.05;100.00;100248.25;1856285;77;21038;-94
2022/11/04 21:15:58;;;;;;;79.82;40.08;;;;;;;4.10;100.00;100249.11;1798682;78;86646;-65
2022/11/04 21:18:24;;;;;;;74.15;37.05;;;;;;;4.11;100.00;100253.42;1758157;81;21742;-65
2022/11/04 21:20:51;;;;;;;73.30;36.00;;;;;;;4.19;100.00;100252.94;1758021;81;21575;-65
2022/11/04 21:23:19;;;;;;;114.72;51.83;;;;;;;4.27;100.00;100255.45;1758297;81;22132;-65
2022/11/04 21:25:53;;;;;;;117.33;56.98;;;;;;;4.32;100.00;100255.83;1722030;83;20999;-65
2022/11/04 21:28:20;;;;;;;117.57;58.65;;;;;;;4.35;100.00;100259.73;1687390;84;21107;-65
2022/11/04 21:30:48;;;;;;;153.72;73.30;;;;;;;4.35;100.00;100255.82;1687832;85;21235;-65
2022/11/04 21:33:15;;;;;;;132.12;63.42;;;;;;;4.42;100.00;100256.63;1687875;85;21055;-64
2022/11/04 21:35:42;;;;;;;120.37;56.20;;;;;;;4.43;100.00;100255.73;1688051;85;21087;-65
2022/11/04 21:38:14;;;;;;;102.75;52.30;;;;;;;4.36;100.00;100249.71;1687787;85;22098;-66